createdAt,value
2019-01-06T00:00:39.787Z,11.68
2019-01-06T00:03:39.575Z,12.60
2019-01-06T00:06:44.215Z,11.88
2019-01-06T00:09:31.050Z,12.05
2019-01-06T00:12:15.561Z,12.35
2019-01-06T00:15:10.482Z,11.03
2019-01-06T00:17:58.727Z,11.78
2019-01-06T00:21:01.079Z,11.90
2019-01-06T00:24:14.223Z,11.65
2019-01-06T00:27:43.928Z,11.00
2019-01-06T00:30:41.425Z,11.68
2019-01-06T00:33:24.497Z,11.43
2019-01-06T00:36:24.207Z,12.95
2019-01-06T00:55:47.240Z,11.35
2019-01-06T00:58:35.618Z,11.97
2019-01-06T01:01:23.026Z,10.90
2019-01-06T01:04:16.336Z,11.30
2019-01-06T01:07:08.316Z,11.70
2019-01-06T01:13:27.966Z,12.53
2019-01-06T01:16:33.062Z,11.88
2019-01-06T01:19:18.273Z,11.55
2019-01-06T01:22:19.101Z,11.73
2019-01-06T01:36:52.553Z,11.88
2019-01-06T01:43:25.664Z,11.70
2019-01-06T01:46:39.943Z,11.73
2019-01-06T01:53:31.754Z,12.10
2019-01-06T01:56:42.779Z,11.25
2019-01-06T01:59:46.842Z,12.40
2019-01-06T02:02:34.732Z,11.48
2019-01-06T02:05:32.650Z,12.35
2019-01-06T02:08:27.043Z,12.37
2019-01-06T02:11:16.030Z,14.18
2019-01-06T02:14:27.144Z,14.30
2019-01-06T02:17:21.046Z,13.50
2019-01-06T02:23:39.089Z,12.98
2019-01-06T02:26:33.975Z,14.07
2019-01-06T02:33:39.079Z,11.65
2019-01-06T02:36:32.114Z,15.03
2019-01-06T02:39:30.163Z,12.68
2019-01-06T02:42:30.331Z,12.20
2019-01-06T02:45:27.046Z,14.03
2019-01-06T02:48:34.545Z,13.30
2019-01-06T02:51:35.192Z,12.63
2019-01-06T02:54:24.689Z,12.68
2019-01-06T02:57:15.114Z,14.00
2019-01-06T03:00:14.357Z,13.38
2019-01-06T03:03:01.190Z,12.33
2019-01-06T03:05:58.756Z,10.68
2019-01-06T03:08:45.671Z,13.93
2019-01-06T03:11:30.838Z,12.73
2019-01-06T03:14:17.745Z,14.07
2019-01-06T03:17:17.926Z,12.18
2019-01-06T03:20:14.336Z,11.70
2019-01-06T03:23:02.888Z,12.28
2019-01-06T03:25:50.250Z,12.43
2019-01-06T03:28:39.851Z,11.97
2019-01-06T03:31:43.923Z,12.50
2019-01-06T03:34:31.664Z,13.03
2019-01-06T03:37:18.368Z,12.45
2019-01-06T03:40:02.913Z,11.33
2019-01-06T03:42:55.511Z,12.90
2019-01-06T03:45:45.377Z,12.58
2019-01-06T03:49:02.066Z,12.50
2019-01-06T03:51:47.382Z,11.53
2019-01-06T03:54:42.016Z,11.88
2019-01-06T03:57:23.637Z,11.85
2019-01-06T04:00:14.946Z,12.15
2019-01-06T04:03:15.314Z,11.95
2019-01-06T04:06:02.523Z,13.88
2019-01-06T04:08:57.587Z,11.22
2019-01-06T04:11:55.022Z,11.50
2019-01-06T04:14:44.129Z,14.10
2019-01-06T04:17:55.227Z,12.20
2019-01-06T04:20:56.544Z,10.20
2019-01-06T04:24:05.699Z,11.43
2019-01-06T04:27:19.495Z,12.15
2019-01-06T04:30:50.926Z,10.50
2019-01-06T04:34:50.304Z,10.45
2019-01-06T04:45:15.771Z,12.05
2019-01-06T04:48:21.946Z,11.15
2019-01-06T04:54:21.176Z,10.80
2019-01-06T04:57:13.315Z,12.13
2019-01-06T05:00:21.829Z,11.05
2019-01-06T05:03:08.928Z,11.40
2019-01-06T05:05:53.702Z,12.73
2019-01-06T05:09:02.803Z,11.08
2019-01-06T05:11:48.788Z,11.40
2019-01-06T05:14:44.368Z,11.12
2019-01-06T05:17:32.683Z,10.85
2019-01-06T05:20:20.844Z,11.78
2019-01-06T05:23:22.125Z,11.35
2019-01-06T05:37:22.646Z,13.38
2019-01-06T05:43:56.675Z,12.13
2019-01-06T05:47:00.140Z,10.72
2019-01-06T06:13:45.888Z,11.28
2019-01-06T06:16:33.140Z,11.55
2019-01-06T06:19:29.056Z,12.50
2019-01-06T06:22:32.426Z,12.70
2019-01-06T06:25:19.015Z,11.53
2019-01-06T06:28:10.181Z,13.03
2019-01-06T06:30:56.914Z,11.80
2019-01-06T06:33:54.056Z,12.07
2019-01-06T06:36:57.057Z,11.88
2019-01-06T06:39:34.329Z,12.33
2019-01-06T06:42:22.953Z,12.03
2019-01-06T06:45:07.746Z,12.50
2019-01-06T06:48:05.141Z,12.58
2019-01-06T06:50:55.387Z,12.53
2019-01-06T06:53:47.192Z,12.90
2019-01-06T06:56:33.633Z,13.32
2019-01-06T06:59:20.140Z,15.30
2019-01-06T07:03:01.569Z,13.68
2019-01-06T07:05:50.364Z,11.20
2019-01-06T07:08:37.027Z,13.50
2019-01-06T07:11:25.300Z,13.93
2019-01-06T07:14:25.783Z,13.70
2019-01-06T07:17:55.739Z,14.25
2019-01-06T07:20:46.656Z,14.90
2019-01-06T07:23:33.719Z,13.85
2019-01-06T07:33:14.483Z,14.68
2019-01-06T07:36:05.448Z,13.08
2019-01-06T07:39:00.554Z,14.83
2019-01-06T07:41:47.151Z,14.13
2019-01-06T07:44:33.859Z,14.53
2019-01-06T07:47:24.739Z,14.07
2019-01-06T07:50:11.502Z,13.85
2019-01-06T07:52:58.353Z,14.47
2019-01-06T07:55:52.411Z,14.65
2019-01-06T07:58:46.667Z,15.00
2019-01-06T08:01:42.197Z,15.00
2019-01-06T08:04:36.275Z,14.60
2019-01-06T08:07:45.583Z,16.57
2019-01-06T08:10:34.066Z,15.25
2019-01-06T08:13:21.028Z,13.08
2019-01-06T08:16:14.451Z,15.32
2019-01-06T08:19:05.719Z,14.45
2019-01-06T08:21:57.185Z,14.98
2019-01-06T08:24:44.906Z,14.30
2019-01-06T08:28:18.232Z,16.42
2019-01-06T08:31:05.333Z,15.50
2019-01-06T08:33:56.194Z,16.20
2019-01-06T08:37:02.729Z,14.75
2019-01-06T08:40:09.220Z,13.83
2019-01-06T08:43:28.261Z,14.90
2019-01-06T09:16:55.174Z,13.85
2019-01-06T09:19:49.996Z,13.80
2019-01-06T09:23:00.233Z,12.53
2019-01-06T09:54:13.109Z,11.75
2019-01-06T10:00:53.068Z,9.45
2019-01-06T10:03:39.848Z,9.70
2019-01-06T10:06:43.344Z,11.10
2019-01-06T10:09:30.435Z,10.70
2019-01-06T10:12:47.620Z,10.35
2019-01-06T10:18:47.180Z,12.43
2019-01-06T10:21:35.313Z,11.78
2019-01-06T10:24:23.500Z,11.22
2019-01-06T10:27:09.864Z,9.45
2019-01-06T10:30:13.354Z,9.10
2019-01-06T10:33:01.825Z,7.17
2019-01-06T10:35:48.403Z,5.92
2019-01-06T10:38:35.176Z,6.45
2019-01-06T10:41:21.960Z,6.30
2019-01-06T10:44:12.890Z,6.22
2019-01-06T10:47:15.365Z,6.35
2019-01-06T10:50:05.680Z,6.97
2019-01-06T10:58:56.497Z,5.90
2019-01-06T11:05:02.060Z,4.92
2019-01-06T11:08:02.592Z,4.15
2019-01-06T11:13:54.749Z,6.28
2019-01-06T11:32:00.880Z,6.67
2019-01-06T11:39:22.473Z,7.00
2019-01-06T11:46:03.627Z,9.80
2019-01-06T12:03:42.345Z,8.55
2019-01-06T12:07:04.030Z,8.35
2019-01-06T12:10:27.161Z,9.58
2019-01-06T12:13:13.179Z,8.35
2019-01-06T12:19:33.692Z,9.33
2019-01-06T12:22:43.548Z,8.90
2019-01-06T12:25:49.268Z,7.95
2019-01-06T12:29:15.822Z,8.30
2019-01-06T12:32:07.456Z,8.48
2019-01-06T12:38:51.711Z,7.72
2019-01-06T12:41:39.913Z,8.48
2019-01-06T12:44:27.259Z,8.60
2019-01-06T12:47:17.162Z,10.18
2019-01-06T12:53:21.260Z,10.30
2019-01-06T13:03:53.393Z,7.83
2019-01-06T13:10:22.496Z,9.50
2019-01-06T13:13:46.619Z,9.95
2019-01-06T13:17:01.434Z,9.53
2019-01-06T13:20:12.283Z,8.50
2019-01-06T13:23:54.613Z,9.73
2019-01-06T13:26:46.098Z,7.95
2019-01-06T13:29:36.439Z,6.90
2019-01-06T13:32:40.017Z,6.87
2019-01-06T13:35:40.842Z,7.00
2019-01-06T13:38:38.495Z,7.45
2019-01-06T13:41:45.098Z,7.60
2019-01-06T13:45:28.845Z,8.05
2019-01-06T13:48:19.749Z,9.08
2019-01-06T13:51:14.392Z,8.48
2019-01-06T13:54:00.832Z,8.03
2019-01-06T13:56:58.135Z,8.18
2019-01-06T13:59:46.253Z,7.28
2019-01-06T14:02:36.305Z,7.67
2019-01-06T14:05:30.564Z,7.70
2019-01-06T14:08:28.665Z,8.28
2019-01-06T14:11:16.360Z,7.10
2019-01-06T14:14:11.423Z,7.25
2019-01-06T14:17:32.561Z,8.48
2019-01-06T14:20:19.513Z,8.75
2019-01-06T14:23:06.545Z,6.92
2019-01-06T14:25:56.325Z,7.10
2019-01-06T14:33:21.772Z,7.45
2019-01-06T14:36:43.967Z,7.28
2019-01-06T14:46:44.597Z,8.18
2019-01-06T14:49:58.652Z,9.40
2019-01-06T14:53:54.313Z,9.40
2019-01-06T15:01:13.829Z,10.82
2019-01-06T15:16:19.558Z,10.90
2019-01-06T15:30:27.534Z,12.75
2019-01-06T15:36:18.092Z,12.85
2019-01-06T15:39:37.666Z,11.75
2019-01-06T15:43:04.553Z,12.47
2019-01-06T15:46:13.376Z,11.40
2019-01-06T15:49:20.322Z,10.50
2019-01-06T15:52:11.730Z,11.83
2019-01-06T15:54:58.299Z,11.68
2019-01-06T15:57:46.524Z,10.40
2019-01-06T16:03:51.980Z,11.38
2019-01-06T16:10:35.112Z,10.40
2019-01-06T16:14:39.365Z,11.18
2019-01-06T16:17:53.497Z,11.78
2019-01-06T16:20:43.496Z,10.00
2019-01-06T16:23:44.127Z,10.43
2019-01-06T16:26:57.356Z,8.20
2019-01-06T16:33:58.701Z,7.00
2019-01-06T16:37:08.993Z,6.65
2019-01-06T16:39:58.473Z,5.30
2019-01-06T16:42:45.501Z,4.03
2019-01-06T16:45:51.494Z,3.47
2019-01-06T16:48:38.507Z,3.47
2019-01-06T16:51:45.227Z,3.70
2019-01-06T16:54:54.346Z,3.98
2019-01-06T16:57:43.026Z,4.10
2019-01-06T17:00:53.694Z,3.25
2019-01-06T17:03:41.752Z,3.47
2019-01-06T17:06:36.295Z,2.85
2019-01-06T17:09:24.778Z,3.05
2019-01-06T17:12:27.708Z,3.70
2019-01-06T17:15:18.604Z,3.20
2019-01-06T17:18:07.625Z,4.03
2019-01-06T17:20:58.800Z,2.62
2019-01-06T17:23:47.744Z,3.20
2019-01-06T17:26:39.006Z,2.85
2019-01-06T17:29:26.191Z,3.35
2019-01-06T17:32:23.455Z,3.58
2019-01-06T17:35:15.368Z,2.70
2019-01-06T17:38:06.688Z,3.92
2019-01-06T17:41:20.700Z,3.40
2019-01-06T17:44:40.730Z,3.50
2019-01-06T18:03:20.506Z,5.85
2019-01-06T19:02:04.548Z,8.25
2019-01-06T19:57:57.690Z,8.28
2019-01-06T20:31:32.642Z,9.98
2019-01-06T20:34:19.692Z,9.05
2019-01-06T20:37:10.849Z,8.53
2019-01-06T20:39:54.480Z,11.43
2019-01-06T20:42:48.316Z,10.23
2019-01-06T20:45:39.927Z,8.98
2019-01-06T20:48:28.486Z,10.07
2019-01-06T20:51:48.480Z,9.40
2019-01-06T20:54:26.482Z,9.85
2019-01-06T20:57:30.814Z,8.23
2019-01-06T21:00:12.140Z,8.75
2019-01-06T21:03:08.542Z,8.30
2019-01-06T21:05:59.592Z,9.40
2019-01-06T21:08:48.100Z,9.50
2019-01-06T21:11:35.017Z,8.93
2019-01-06T21:14:30.218Z,8.85
2019-01-06T21:17:17.429Z,8.83
2019-01-06T21:20:19.702Z,8.35
2019-01-06T21:23:09.660Z,9.18
2019-01-06T21:26:01.265Z,8.10
2019-01-06T21:28:51.541Z,8.50
2019-01-06T21:31:51.874Z,8.53
2019-01-06T21:34:38.429Z,9.15
2019-01-06T21:37:29.701Z,8.13
2019-01-06T21:40:17.795Z,8.20
2019-01-06T21:43:42.954Z,8.78
2019-01-06T21:52:37.536Z,6.92
2019-01-06T21:55:42.936Z,7.70
2019-01-06T22:02:51.568Z,9.03
2019-01-06T22:13:32.277Z,5.65
2019-01-06T22:28:05.275Z,7.33
2019-01-06T22:38:02.102Z,6.60
2019-01-06T22:40:41.646Z,7.58
2019-01-06T22:43:36.044Z,7.37
2019-01-06T22:49:47.725Z,8.38
2019-01-06T22:52:36.766Z,7.50
2019-01-06T22:55:38.555Z,6.65
2019-01-06T22:59:08.319Z,5.78
2019-01-06T23:02:44.179Z,5.83
2019-01-06T23:05:31.956Z,5.17
2019-01-06T23:08:22.973Z,5.87
2019-01-06T23:11:39.559Z,6.58
2019-01-06T23:14:26.532Z,5.67
2019-01-06T23:20:47.957Z,5.80
2019-01-06T23:23:42.699Z,5.50
2019-01-06T23:27:34.351Z,5.12
2019-01-06T23:30:15.643Z,6.60
2019-01-06T23:33:13.908Z,6.62
2019-01-06T23:36:07.842Z,5.35
2019-01-06T23:38:58.866Z,6.30
2019-01-06T23:41:45.176Z,7.05
2019-01-06T23:44:31.550Z,5.60
2019-01-06T23:47:17.943Z,5.10
2019-01-06T23:49:53.400Z,6.08
2019-01-06T23:52:41.563Z,5.58
2019-01-06T23:55:28.309Z,5.42
2019-01-06T23:58:16.646Z,5.15
